createdAt,value
2023-05-17T00:01:52.999Z,11.23
2023-05-17T00:04:21.259Z,20.77
2023-05-17T00:06:49.477Z,15.47
2023-05-17T00:09:17.650Z,15.63
2023-05-17T00:11:47.331Z,17.37
2023-05-17T00:14:16.128Z,12.87
2023-05-17T00:16:44.412Z,19.03
2023-05-17T00:19:12.974Z,15.47
2023-05-17T00:21:41.300Z,14.27
2023-05-17T00:24:09.779Z,13.33
2023-05-17T00:26:38.215Z,19.83
2023-05-17T00:29:07.743Z,18.47
2023-05-17T00:31:36.011Z,25.50
2023-05-17T00:34:06.426Z,26.30
2023-05-17T00:36:34.636Z,21.23
2023-05-17T00:39:02.896Z,18.00
2023-05-17T00:41:34.122Z,19.50
2023-05-17T00:44:02.528Z,23.87
2023-05-17T00:46:33.846Z,24.50
2023-05-17T00:49:02.557Z,38.80
2023-05-17T00:51:31.617Z,25.07
2023-05-17T00:54:00.151Z,29.47
2023-05-17T00:56:29.756Z,37.13
2023-05-17T00:58:58.432Z,37.90
2023-05-17T01:04:32.567Z,48.20
2023-05-17T01:07:00.766Z,56.53
2023-05-17T01:09:29.020Z,62.03
2023-05-17T01:12:06.589Z,62.90
2023-05-17T01:14:46.023Z,68.33
2023-05-17T01:17:18.596Z,58.13
2023-05-17T01:20:06.433Z,69.33
2023-05-17T01:22:46.077Z,68.90
2023-05-17T01:25:37.418Z,65.67
2023-05-17T01:28:09.258Z,56.60
2023-05-17T01:30:39.017Z,52.93
2023-05-17T01:33:08.381Z,56.50
2023-05-17T01:35:36.627Z,59.27
2023-05-17T01:38:04.921Z,56.87
2023-05-17T01:40:36.682Z,65.97
2023-05-17T01:43:11.464Z,58.47
2023-05-17T01:45:45.905Z,51.07
2023-05-17T01:48:21.730Z,57.00
2023-05-17T01:50:55.726Z,56.67
2023-05-17T01:53:30.764Z,48.27
2023-05-17T01:56:37.084Z,46.23
2023-05-17T01:59:08.466Z,56.70
2023-05-17T02:01:37.429Z,57.60
2023-05-17T02:04:06.036Z,54.30
2023-05-17T02:06:34.232Z,40.07
2023-05-17T02:09:03.206Z,43.73
2023-05-17T02:11:33.430Z,34.57
2023-05-17T02:14:01.637Z,43.03
2023-05-17T02:16:31.267Z,33.67
2023-05-17T02:18:59.518Z,41.03
2023-05-17T02:21:27.745Z,43.23
2023-05-17T02:23:55.965Z,36.20
2023-05-17T02:26:24.323Z,35.67
2023-05-17T02:28:52.553Z,38.50
2023-05-17T02:31:20.819Z,31.17
2023-05-17T02:33:50.500Z,33.53
2023-05-17T02:36:18.746Z,31.93
2023-05-17T02:38:46.978Z,35.20
2023-05-17T02:41:15.218Z,33.53
2023-05-17T02:43:43.682Z,30.37
2023-05-17T02:46:11.854Z,38.17
2023-05-17T02:48:40.182Z,31.13
2023-05-17T02:51:11.130Z,31.53
2023-05-17T02:53:39.327Z,33.83
2023-05-17T02:56:08.441Z,33.03
2023-05-17T02:58:36.580Z,34.63
2023-05-17T03:01:04.983Z,34.60
2023-05-17T03:03:36.011Z,24.20
2023-05-17T03:06:05.093Z,31.87
2023-05-17T03:08:34.725Z,28.03
2023-05-17T03:11:03.933Z,27.67
2023-05-17T03:13:32.155Z,28.20
2023-05-17T03:16:00.304Z,36.83
2023-05-17T03:18:28.797Z,41.67
2023-05-17T03:20:57.137Z,35.00
2023-05-17T03:23:25.642Z,40.63
2023-05-17T03:25:55.195Z,42.13
2023-05-17T03:28:23.576Z,37.10
2023-05-17T03:30:51.892Z,36.83
2023-05-17T03:33:20.345Z,27.03
2023-05-17T03:35:48.753Z,32.40
2023-05-17T03:38:16.952Z,28.23
2023-05-17T03:40:45.174Z,29.30
2023-05-17T03:43:14.758Z,31.50
2023-05-17T03:45:42.949Z,28.20
2023-05-17T03:48:11.183Z,19.70
2023-05-17T03:50:41.050Z,25.97
2023-05-17T03:53:10.386Z,29.10
2023-05-17T03:55:38.746Z,26.07
2023-05-17T03:58:07.025Z,26.50
2023-05-17T04:00:36.888Z,28.50
2023-05-17T04:03:05.254Z,28.80
2023-05-17T04:05:33.970Z,25.80
2023-05-17T04:08:02.204Z,27.40
2023-05-17T04:10:30.552Z,21.43
2023-05-17T04:12:58.799Z,29.43
2023-05-17T04:15:28.321Z,24.57
2023-05-17T04:17:58.135Z,27.47
2023-05-17T04:20:26.520Z,26.40
2023-05-17T04:22:54.667Z,28.57
2023-05-17T04:25:24.104Z,30.70
2023-05-17T04:27:52.585Z,30.03
2023-05-17T04:30:24.056Z,30.57
2023-05-17T04:32:52.330Z,32.17
2023-05-17T04:35:22.193Z,30.47
2023-05-17T04:37:50.431Z,32.53
2023-05-17T04:40:18.715Z,37.00
2023-05-17T04:42:47.563Z,55.17
2023-05-17T04:45:16.250Z,45.63
2023-05-17T04:47:44.762Z,53.60
2023-05-17T04:50:13.486Z,41.93
2023-05-17T04:52:43.071Z,40.03
2023-05-17T04:55:11.514Z,35.87
2023-05-17T04:57:39.801Z,33.93
2023-05-17T05:00:10.055Z,34.87
2023-05-17T05:02:41.450Z,29.87
2023-05-17T05:05:10.948Z,40.73
2023-05-17T05:07:40.088Z,30.73
2023-05-17T05:10:10.526Z,34.03
2023-05-17T05:12:39.517Z,25.03
2023-05-17T05:15:08.779Z,28.80
2023-05-17T05:17:37.095Z,34.47
2023-05-17T05:20:06.424Z,37.47
2023-05-17T05:22:34.682Z,35.00
2023-05-17T05:25:02.956Z,46.43
2023-05-17T05:27:32.559Z,41.40
2023-05-17T05:30:00.790Z,41.87
2023-05-17T05:32:29.200Z,37.33
2023-05-17T05:34:57.629Z,30.63
2023-05-17T05:37:25.785Z,34.97
2023-05-17T05:39:54.006Z,31.73
2023-05-17T05:42:22.321Z,42.30
2023-05-17T05:44:51.876Z,32.13
2023-05-17T05:47:20.216Z,28.57
2023-05-17T05:49:48.499Z,30.77
2023-05-17T05:52:16.685Z,30.47
2023-05-17T05:54:46.155Z,25.57
2023-05-17T05:57:14.306Z,33.03
2023-05-17T05:59:42.584Z,26.90
2023-05-17T06:02:12.924Z,25.00
2023-05-17T06:04:45.273Z,22.17
2023-05-17T06:07:14.073Z,25.83
2023-05-17T06:09:42.901Z,21.77
2023-05-17T06:12:11.410Z,22.70
2023-05-17T06:14:39.798Z,22.80
2023-05-17T06:17:08.001Z,24.63
2023-05-17T06:19:37.741Z,34.07
2023-05-17T06:22:06.317Z,25.10
2023-05-17T06:24:34.511Z,30.10
2023-05-17T06:27:02.777Z,29.37
2023-05-17T06:29:31.231Z,28.57
2023-05-17T06:31:59.893Z,25.43
2023-05-17T06:34:28.326Z,25.57
2023-05-17T06:36:57.968Z,31.40
2023-05-17T06:39:26.347Z,27.07
2023-05-17T06:41:54.521Z,28.20
2023-05-17T06:44:22.672Z,25.93
2023-05-17T06:46:51.086Z,21.80
2023-05-17T06:49:19.225Z,29.67
2023-05-17T06:51:48.877Z,18.67
2023-05-17T06:54:19.673Z,19.13
2023-05-17T06:56:47.862Z,23.60
2023-05-17T06:59:16.641Z,20.57
2023-05-17T07:01:44.902Z,20.17
2023-05-17T07:04:13.236Z,18.80
2023-05-17T07:06:41.415Z,20.37
2023-05-17T07:09:09.627Z,15.07
2023-05-17T07:11:39.176Z,22.13
2023-05-17T07:14:07.345Z,14.37
2023-05-17T07:16:36.244Z,15.73
2023-05-17T07:19:04.613Z,15.20
2023-05-17T07:21:33.606Z,15.13
2023-05-17T07:24:02.178Z,15.03
2023-05-17T07:26:30.825Z,11.57
2023-05-17T07:29:00.569Z,12.17
2023-05-17T07:31:31.518Z,13.60
2023-05-17T07:33:59.716Z,8.67
2023-05-17T07:36:30.674Z,9.20
2023-05-17T07:38:59.949Z,9.50
2023-05-17T07:41:28.197Z,12.33
2023-05-17T07:43:56.346Z,11.17
2023-05-17T07:46:26.111Z,6.77
2023-05-17T07:48:56.563Z,10.00
2023-05-17T07:51:27.113Z,7.67
2023-05-17T07:53:55.313Z,8.90
2023-05-17T07:56:23.727Z,8.33
2023-05-17T07:58:52.263Z,11.90
2023-05-17T08:01:20.593Z,5.97
2023-05-17T08:03:50.325Z,8.50
2023-05-17T08:06:19.258Z,8.07
2023-05-17T08:08:50.389Z,10.80
2023-05-17T08:11:18.605Z,7.17
2023-05-17T08:13:46.950Z,7.60
2023-05-17T08:16:15.251Z,6.10
2023-05-17T08:18:46.364Z,7.50
2023-05-17T08:21:16.202Z,10.03
2023-05-17T08:23:44.792Z,7.80
2023-05-17T08:26:13.119Z,11.20
2023-05-17T08:28:41.570Z,8.77
2023-05-17T08:31:09.767Z,8.67
2023-05-17T08:33:38.027Z,5.57
2023-05-17T08:36:08.274Z,10.27
2023-05-17T08:38:37.853Z,7.10
2023-05-17T08:41:06.034Z,5.70
2023-05-17T08:43:35.831Z,9.23
2023-05-17T08:46:04.307Z,8.57
2023-05-17T08:48:32.932Z,7.20
2023-05-17T08:51:01.578Z,6.37
2023-05-17T08:53:30.530Z,5.43
2023-05-17T08:56:02.805Z,6.10
2023-05-17T08:58:52.299Z,6.93
2023-05-17T09:01:26.547Z,4.40
2023-05-17T09:03:55.793Z,4.27
2023-05-17T09:06:24.895Z,5.87
2023-05-17T09:08:54.795Z,6.67
2023-05-17T09:11:30.288Z,8.50
2023-05-17T09:14:00.913Z,7.80
2023-05-17T09:16:30.315Z,10.43
2023-05-17T09:18:59.901Z,7.27
2023-05-17T09:21:30.989Z,5.93
2023-05-17T09:26:45.927Z,5.57
2023-05-17T09:29:16.054Z,5.83
2023-05-17T09:31:45.370Z,10.40
2023-05-17T09:34:13.701Z,5.60
2023-05-17T09:36:44.720Z,6.40
2023-05-17T09:39:14.763Z,6.43
2023-05-17T09:41:47.010Z,5.33
2023-05-17T09:44:16.624Z,4.63
2023-05-17T09:46:47.500Z,6.83
2023-05-17T09:49:16.859Z,4.37
2023-05-17T09:51:45.971Z,5.50
2023-05-17T09:54:14.365Z,5.77
2023-05-17T09:56:44.870Z,5.43
2023-05-17T09:59:14.579Z,5.90
2023-05-17T10:01:45.204Z,5.97
2023-05-17T10:04:14.842Z,8.30
2023-05-17T10:06:50.712Z,5.87
2023-05-17T10:09:23.452Z,4.77
2023-05-17T10:11:55.128Z,6.03
2023-05-17T10:14:27.916Z,4.23
2023-05-17T10:16:57.277Z,3.53
2023-05-17T10:19:26.718Z,5.80
2023-05-17T10:22:00.278Z,4.43
2023-05-17T10:24:39.455Z,5.27
2023-05-17T10:27:09.348Z,7.43
2023-05-17T10:29:39.470Z,8.63
2023-05-17T10:32:08.673Z,11.40
2023-05-17T10:34:37.983Z,5.23
2023-05-17T10:37:07.787Z,6.60
2023-05-17T10:39:39.157Z,5.00
2023-05-17T10:44:41.149Z,5.67
2023-05-17T10:47:09.936Z,6.10
2023-05-17T10:49:41.643Z,6.10
2023-05-17T10:52:14.439Z,3.83
2023-05-17T10:54:44.089Z,5.50
2023-05-17T10:57:21.747Z,9.30
2023-05-17T11:00:00.839Z,6.30
2023-05-17T11:02:30.123Z,5.13
2023-05-17T11:05:00.518Z,5.50
2023-05-17T11:07:32.323Z,5.70
2023-05-17T11:10:14.075Z,5.30
2023-05-17T11:12:44.879Z,4.93
2023-05-17T11:15:14.706Z,4.60
2023-05-17T11:17:54.187Z,7.30
2023-05-17T11:20:35.085Z,4.60
2023-05-17T11:23:06.252Z,8.57
2023-05-17T11:25:36.990Z,4.37
2023-05-17T11:28:11.255Z,3.77
2023-05-17T11:30:47.760Z,5.10
2023-05-17T11:33:29.045Z,6.60
2023-05-17T11:36:06.376Z,3.70
2023-05-17T11:38:34.786Z,2.00
2023-05-17T11:43:52.176Z,4.80
2023-05-17T11:46:22.026Z,6.70
2023-05-17T11:48:53.622Z,5.77
2023-05-17T11:51:24.936Z,5.07
2023-05-17T11:53:56.084Z,6.10
2023-05-17T11:56:35.772Z,6.13
2023-05-17T11:59:11.807Z,8.20
2023-05-17T12:01:46.793Z,7.10
2023-05-17T12:04:16.210Z,6.03
2023-05-17T12:06:45.952Z,3.70
2023-05-17T12:09:17.916Z,5.80
2023-05-17T12:11:47.793Z,6.80
2023-05-17T12:14:18.594Z,4.23
2023-05-17T12:16:49.657Z,5.50
2023-05-17T12:19:22.300Z,3.10
2023-05-17T12:21:51.120Z,6.77
2023-05-17T12:24:19.472Z,5.07
2023-05-17T12:26:49.160Z,4.33
2023-05-17T12:29:22.998Z,6.27
2023-05-17T12:31:53.879Z,4.30
2023-05-17T12:34:23.102Z,8.73
2023-05-17T12:36:52.747Z,4.37
2023-05-17T12:39:24.179Z,5.57
2023-05-17T12:41:53.388Z,5.00
2023-05-17T12:44:23.258Z,5.07
2023-05-17T12:46:54.008Z,6.80
2023-05-17T12:49:23.261Z,7.20
2023-05-17T12:51:52.027Z,8.23
2023-05-17T12:54:30.581Z,3.33
2023-05-17T12:56:58.784Z,6.77
2023-05-17T12:59:29.280Z,2.83
2023-05-17T13:01:59.293Z,7.53
2023-05-17T13:04:33.005Z,5.67
2023-05-17T13:07:04.125Z,5.73
2023-05-17T13:09:34.209Z,7.20
2023-05-17T13:12:03.758Z,4.30
2023-05-17T13:14:37.768Z,4.37
2023-05-17T13:17:07.318Z,4.73
2023-05-17T13:19:36.382Z,3.67
2023-05-17T13:22:12.700Z,4.20
2023-05-17T13:24:41.090Z,4.57
2023-05-17T13:27:09.719Z,6.40
2023-05-17T13:29:40.897Z,6.27
2023-05-17T13:32:10.376Z,6.90
2023-05-17T13:34:38.702Z,4.90
2023-05-17T13:37:10.294Z,2.13
2023-05-17T13:39:41.772Z,6.90
2023-05-17T13:42:10.813Z,5.30
2023-05-17T13:44:39.464Z,9.23
2023-05-17T13:47:08.272Z,5.20
2023-05-17T13:49:37.305Z,4.17
2023-05-17T13:52:08.683Z,3.83
2023-05-17T13:54:39.159Z,6.83
2023-05-17T13:57:08.882Z,2.93
2023-05-17T13:59:37.034Z,3.23
2023-05-17T14:02:06.837Z,5.47
2023-05-17T14:04:35.137Z,4.73
2023-05-17T14:07:04.419Z,3.40
2023-05-17T14:09:34.400Z,4.43
2023-05-17T14:12:02.796Z,4.63
2023-05-17T14:14:32.960Z,5.47
2023-05-17T14:17:01.940Z,3.23
2023-05-17T14:19:30.525Z,6.50
2023-05-17T14:21:59.037Z,6.63
2023-05-17T14:24:28.025Z,6.40
2023-05-17T14:26:57.649Z,5.63
2023-05-17T14:29:26.006Z,3.70
2023-05-17T14:31:55.569Z,5.87
2023-05-17T14:34:23.801Z,1.83
2023-05-17T14:36:52.192Z,3.73
2023-05-17T14:39:20.325Z,8.23
2023-05-17T14:41:48.511Z,3.57
2023-05-17T14:44:16.681Z,3.60
2023-05-17T14:46:44.803Z,4.03
2023-05-17T14:49:14.692Z,6.93
2023-05-17T14:51:43.437Z,3.57
2023-05-17T14:54:13.531Z,4.47
2023-05-17T14:56:42.396Z,5.93
2023-05-17T14:59:10.675Z,4.53
2023-05-17T15:01:39.031Z,4.07
2023-05-17T15:04:07.433Z,4.03
2023-05-17T15:06:37.219Z,2.73
2023-05-17T15:09:05.771Z,4.53
2023-05-17T15:11:33.952Z,3.90
2023-05-17T15:14:02.357Z,5.20
2023-05-17T15:16:30.785Z,3.17
2023-05-17T15:18:59.227Z,4.27
2023-05-17T15:21:27.747Z,6.17
2023-05-17T15:23:57.288Z,3.00
2023-05-17T15:26:25.594Z,2.27
2023-05-17T15:28:53.798Z,4.60
2023-05-17T15:31:22.499Z,3.70
2023-05-17T15:33:50.868Z,3.13
2023-05-17T15:36:19.166Z,3.80
2023-05-17T15:38:47.349Z,4.20
2023-05-17T15:41:17.759Z,3.13
2023-05-17T15:43:46.169Z,4.70
2023-05-17T15:46:14.407Z,3.50
2023-05-17T15:48:42.641Z,2.93
2023-05-17T15:51:11.184Z,3.97
2023-05-17T15:53:39.632Z,5.07
2023-05-17T15:56:10.222Z,4.90
2023-05-17T15:58:39.975Z,6.50
2023-05-17T16:01:08.225Z,4.17
2023-05-17T16:03:39.748Z,3.43
2023-05-17T16:06:08.987Z,1.80
2023-05-17T16:08:37.256Z,3.33
2023-05-17T16:11:07.541Z,2.90
2023-05-17T16:13:35.719Z,2.33
2023-05-17T16:16:05.797Z,4.00
2023-05-17T16:18:34.329Z,2.87
2023-05-17T16:21:04.940Z,5.27
2023-05-17T16:23:33.677Z,8.53
2023-05-17T16:26:02.899Z,3.27
2023-05-17T16:28:32.453Z,6.17
2023-05-17T16:31:00.832Z,5.77
2023-05-17T16:33:30.447Z,3.67
2023-05-17T16:35:59.236Z,4.47
2023-05-17T16:38:27.556Z,3.67
2023-05-17T16:40:56.447Z,3.30
2023-05-17T16:43:24.583Z,3.60
2023-05-17T16:45:53.156Z,4.70
2023-05-17T16:48:21.451Z,1.70
2023-05-17T16:50:51.245Z,2.67
2023-05-17T16:53:19.711Z,1.87
2023-05-17T16:55:47.952Z,3.37
2023-05-17T16:58:16.105Z,3.20
2023-05-17T17:00:44.325Z,4.23
2023-05-17T17:03:12.648Z,2.57
2023-05-17T17:05:40.952Z,7.03
2023-05-17T17:08:10.508Z,4.70
2023-05-17T17:10:38.972Z,1.77
2023-05-17T17:13:07.119Z,6.43
2023-05-17T17:15:35.318Z,3.07
2023-05-17T17:18:03.677Z,4.87
2023-05-17T17:20:31.925Z,7.60
2023-05-17T17:23:00.156Z,4.57
2023-05-17T17:25:29.793Z,6.07
2023-05-17T17:27:58.013Z,6.70
2023-05-17T17:30:26.259Z,7.13
2023-05-17T17:32:54.604Z,5.33
2023-05-17T17:35:23.018Z,3.53
2023-05-17T17:37:53.042Z,6.00
2023-05-17T17:40:21.770Z,2.67
2023-05-17T17:42:51.282Z,4.33
2023-05-17T17:45:19.461Z,6.60
2023-05-17T17:47:47.634Z,7.77
2023-05-17T17:50:15.856Z,8.33
2023-05-17T17:52:44.043Z,3.57
2023-05-17T17:55:13.256Z,6.37
2023-05-17T17:57:41.847Z,7.37
2023-05-17T18:00:13.621Z,7.70
2023-05-17T18:02:41.845Z,9.63
2023-05-17T18:05:10.959Z,7.50
2023-05-17T18:07:39.277Z,7.73
2023-05-17T18:10:08.532Z,11.60
2023-05-17T18:12:36.826Z,3.10
2023-05-17T18:15:05.639Z,5.00
2023-05-17T18:17:35.284Z,8.53
2023-05-17T18:20:03.589Z,9.53
2023-05-17T18:22:31.706Z,7.97
2023-05-17T18:25:00.335Z,5.27
2023-05-17T18:27:28.479Z,4.60
2023-05-17T18:29:56.651Z,8.13
2023-05-17T18:32:25.031Z,13.00
2023-05-17T18:34:55.216Z,9.97
2023-05-17T18:37:23.412Z,9.53
2023-05-17T18:39:52.134Z,6.43
2023-05-17T18:42:21.310Z,8.03
2023-05-17T18:44:49.581Z,17.37
2023-05-17T18:47:18.097Z,3.43
2023-05-17T18:49:47.087Z,9.10
2023-05-17T18:52:16.705Z,5.63
2023-05-17T18:54:46.992Z,4.60
2023-05-17T18:57:15.299Z,10.77
2023-05-17T18:59:43.505Z,7.57
2023-05-17T19:02:11.996Z,4.90
2023-05-17T19:04:40.484Z,9.00
2023-05-17T19:07:08.811Z,7.03
2023-05-17T19:09:38.882Z,6.37
2023-05-17T19:12:08.373Z,9.00
2023-05-17T19:14:38.334Z,6.60
2023-05-17T19:17:09.071Z,7.53
2023-05-17T19:19:37.308Z,9.50
2023-05-17T19:22:05.893Z,7.33
2023-05-17T19:24:34.392Z,6.33
2023-05-17T19:27:03.991Z,9.70
2023-05-17T19:29:33.102Z,7.37
2023-05-17T19:32:01.617Z,5.63
2023-05-17T19:34:29.825Z,7.87
2023-05-17T19:36:58.746Z,7.20
2023-05-17T19:39:27.102Z,14.10
2023-05-17T19:41:55.419Z,9.60
2023-05-17T19:44:24.989Z,10.53
2023-05-17T19:46:53.403Z,14.73
2023-05-17T19:49:21.659Z,9.03
2023-05-17T19:51:49.946Z,12.00
2023-05-17T19:54:18.189Z,10.90
2023-05-17T19:56:46.470Z,6.93
2023-05-17T19:59:14.720Z,10.30
2023-05-17T20:01:44.436Z,7.57
2023-05-17T20:04:12.849Z,10.47
2023-05-17T20:06:41.476Z,9.53
2023-05-17T20:09:09.677Z,8.10
2023-05-17T20:11:37.864Z,7.37
2023-05-17T20:14:06.339Z,17.60
2023-05-17T20:16:34.776Z,9.23
2023-05-17T20:19:04.493Z,10.63
2023-05-17T20:21:32.680Z,8.77
2023-05-17T20:24:03.886Z,11.67
2023-05-17T20:26:36.569Z,8.07
2023-05-17T20:29:07.389Z,10.70
2023-05-17T20:31:36.451Z,9.47
2023-05-17T20:34:06.519Z,11.20
2023-05-17T20:36:34.864Z,12.37
2023-05-17T20:39:03.507Z,8.00
2023-05-17T20:41:31.808Z,14.60
2023-05-17T20:43:59.994Z,12.77
2023-05-17T20:46:29.771Z,19.77
2023-05-17T20:48:58.207Z,9.00
2023-05-17T20:51:28.054Z,15.60
2023-05-17T20:53:56.196Z,13.23
2023-05-17T20:56:25.640Z,13.77
2023-05-17T20:58:53.816Z,10.37
2023-05-17T21:01:22.671Z,9.83
2023-05-17T21:03:51.513Z,13.27
2023-05-17T21:06:19.839Z,13.83
2023-05-17T21:08:49.517Z,15.10
2023-05-17T21:11:21.304Z,17.10
2023-05-17T21:13:49.760Z,12.87
2023-05-17T21:16:18.809Z,9.90
2023-05-17T21:18:47.167Z,11.67
2023-05-17T21:21:15.361Z,15.03
2023-05-17T21:23:43.669Z,11.03
2023-05-17T21:26:14.927Z,10.20
2023-05-17T21:28:43.199Z,11.67
2023-05-17T21:31:11.472Z,16.30
2023-05-17T21:33:39.675Z,8.47
2023-05-17T21:36:08.107Z,11.17
2023-05-17T21:38:37.126Z,11.47
2023-05-17T21:41:05.304Z,12.47
2023-05-17T21:43:34.872Z,11.70
2023-05-17T21:46:03.065Z,14.77
2023-05-17T21:48:31.211Z,11.43
2023-05-17T21:50:59.522Z,12.93
2023-05-17T21:53:27.947Z,11.27
2023-05-17T21:56:01.909Z,9.30
2023-05-17T21:58:31.945Z,16.67
2023-05-17T22:01:01.791Z,11.37
2023-05-17T22:03:30.209Z,13.67
2023-05-17T22:05:58.467Z,13.47
2023-05-17T22:08:26.766Z,16.13
2023-05-17T22:10:55.823Z,14.93
2023-05-17T22:13:26.866Z,19.17
2023-05-17T22:15:57.352Z,11.07
2023-05-17T22:18:32.165Z,11.57
2023-05-17T22:21:00.610Z,8.80
2023-05-17T22:23:29.257Z,8.97
2023-05-17T22:26:00.383Z,11.83
2023-05-17T22:28:28.895Z,15.53
2023-05-17T22:30:57.130Z,7.83
2023-05-17T22:33:29.605Z,11.00
2023-05-17T22:35:58.862Z,10.73
2023-05-17T22:38:27.120Z,10.63
2023-05-17T22:40:55.580Z,10.23
2023-05-17T22:43:25.939Z,8.17
2023-05-17T22:45:54.167Z,10.17
2023-05-17T22:48:22.341Z,12.50
2023-05-17T22:50:54.538Z,9.13
2023-05-17T22:53:22.795Z,12.40
2023-05-17T22:55:51.154Z,15.73
2023-05-17T22:58:19.379Z,11.73
2023-05-17T23:00:51.011Z,15.03
2023-05-17T23:03:20.458Z,22.47
2023-05-17T23:05:48.985Z,11.80
2023-05-17T23:08:18.513Z,14.17
2023-05-17T23:10:46.984Z,8.93
2023-05-17T23:13:17.103Z,16.67
2023-05-17T23:15:46.289Z,13.77
2023-05-17T23:18:14.756Z,11.67
2023-05-17T23:20:43.222Z,13.20
2023-05-17T23:23:11.358Z,11.60
2023-05-17T23:25:41.034Z,15.60
2023-05-17T23:28:09.553Z,12.77
2023-05-17T23:30:38.565Z,13.33
2023-05-17T23:33:06.900Z,11.80
2023-05-17T23:35:35.154Z,13.27
2023-05-17T23:38:04.231Z,16.53
2023-05-17T23:40:32.688Z,15.17
2023-05-17T23:43:02.283Z,19.37
2023-05-17T23:45:30.768Z,12.77
2023-05-17T23:48:00.441Z,15.23
2023-05-17T23:50:28.904Z,18.80
2023-05-17T23:52:57.151Z,14.20
2023-05-17T23:55:25.333Z,14.53
2023-05-17T23:57:53.499Z,10.23
